createdAt,value
2022-11-17T00:00:07.618Z,9.17
2022-11-17T00:02:35.684Z,7.10
2022-11-17T00:05:03.680Z,6.23
2022-11-17T00:07:31.927Z,9.17
2022-11-17T00:09:59.997Z,7.90
2022-11-17T00:12:45.500Z,5.27
2022-11-17T00:15:15.040Z,6.50
2022-11-17T00:17:43.036Z,5.70
2022-11-17T00:20:29.687Z,9.93
2022-11-17T00:22:57.704Z,9.83
2022-11-17T00:25:25.844Z,6.50
2022-11-17T00:27:53.839Z,7.23
2022-11-17T00:30:43.850Z,6.20
2022-11-17T00:33:29.403Z,9.30
2022-11-17T00:35:57.497Z,13.90
2022-11-17T00:38:25.699Z,9.70
2022-11-17T00:40:53.714Z,9.70
2022-11-17T00:43:21.893Z,8.87
2022-11-17T00:45:51.333Z,9.80
2022-11-17T00:48:19.434Z,7.37
2022-11-17T00:50:47.507Z,9.33
2022-11-17T00:53:15.603Z,8.63
2022-11-17T00:55:46.293Z,7.67
2022-11-17T00:58:14.451Z,7.23
2022-11-17T01:00:42.492Z,9.27
2022-11-17T01:03:11.802Z,11.07
2022-11-17T01:05:39.888Z,6.07
2022-11-17T01:08:07.957Z,8.20
2022-11-17T01:10:36.444Z,8.67
2022-11-17T01:13:04.748Z,7.87
2022-11-17T01:15:34.251Z,9.57
2022-11-17T01:18:02.381Z,8.70
2022-11-17T01:20:31.863Z,8.97
2022-11-17T01:22:59.851Z,10.97
2022-11-17T01:25:27.871Z,10.53
2022-11-17T01:27:55.947Z,10.70
2022-11-17T01:30:24.009Z,13.37
2022-11-17T01:32:52.058Z,10.80
2022-11-17T01:35:20.086Z,10.67
2022-11-17T01:37:49.530Z,9.30
2022-11-17T01:40:17.577Z,9.90
2022-11-17T01:42:45.727Z,9.20
2022-11-17T01:45:21.890Z,7.90
2022-11-17T01:47:53.157Z,8.23
2022-11-17T01:50:29.035Z,7.30
2022-11-17T01:53:02.219Z,12.57
2022-11-17T01:55:35.086Z,8.93
2022-11-17T01:58:07.998Z,10.03
2022-11-17T02:00:36.468Z,6.27
2022-11-17T02:03:07.217Z,8.20
2022-11-17T02:05:42.718Z,8.57
2022-11-17T02:08:13.018Z,12.83
2022-11-17T02:10:41.272Z,10.50
2022-11-17T02:13:10.519Z,8.00
2022-11-17T02:15:38.542Z,6.93
2022-11-17T02:18:06.922Z,8.60
2022-11-17T02:20:52.343Z,9.93
2022-11-17T02:23:53.723Z,8.03
2022-11-17T02:26:57.356Z,9.70
2022-11-17T02:29:31.367Z,15.07
2022-11-17T02:32:06.028Z,10.13
2022-11-17T02:34:41.304Z,9.40
2022-11-17T02:37:16.223Z,9.97
2022-11-17T02:39:51.127Z,15.27
2022-11-17T02:42:47.989Z,12.83
2022-11-17T02:45:20.964Z,12.20
2022-11-17T02:47:53.304Z,11.37
2022-11-17T02:50:28.195Z,14.93
2022-11-17T02:52:57.033Z,14.90
2022-11-17T02:55:25.131Z,9.50
2022-11-17T02:57:53.164Z,14.03
2022-11-17T03:00:22.715Z,13.63
2022-11-17T03:03:04.680Z,12.70
2022-11-17T03:05:41.035Z,11.73
2022-11-17T03:08:18.775Z,11.57
2022-11-17T03:10:55.465Z,10.47
2022-11-17T03:13:32.609Z,12.47
2022-11-17T03:16:14.123Z,10.83
2022-11-17T03:18:52.076Z,11.73
2022-11-17T03:21:24.244Z,10.63
2022-11-17T03:23:56.079Z,8.00
2022-11-17T03:26:29.819Z,8.93
2022-11-17T03:29:00.985Z,11.67
2022-11-17T03:31:32.518Z,10.63
2022-11-17T03:34:02.763Z,9.83
2022-11-17T03:36:35.305Z,15.90
2022-11-17T03:39:07.803Z,11.07
2022-11-17T03:41:40.239Z,9.77
2022-11-17T03:44:08.730Z,9.80
2022-11-17T03:46:40.046Z,12.30
2022-11-17T03:49:16.137Z,10.73
2022-11-17T03:51:44.537Z,11.93
2022-11-17T03:54:13.196Z,10.17
2022-11-17T03:56:47.023Z,10.03
2022-11-17T03:59:18.762Z,10.30
2022-11-17T04:01:48.325Z,7.80
2022-11-17T04:04:17.322Z,8.97
2022-11-17T04:06:45.283Z,12.00
2022-11-17T04:09:13.435Z,8.10
2022-11-17T04:11:59.029Z,12.07
2022-11-17T04:14:44.591Z,6.37
2022-11-17T04:17:14.155Z,9.37
2022-11-17T04:19:42.178Z,10.10
2022-11-17T04:22:10.208Z,10.17
2022-11-17T04:24:38.231Z,8.53
2022-11-17T04:27:23.768Z,10.00
2022-11-17T04:29:51.803Z,12.80
2022-11-17T04:32:21.390Z,8.83
2022-11-17T04:34:49.394Z,10.70
2022-11-17T04:37:18.293Z,12.43
2022-11-17T04:39:46.666Z,12.33
2022-11-17T04:42:13.643Z,8.17
2022-11-17T04:44:41.825Z,8.73
2022-11-17T04:47:09.818Z,10.10
2022-11-17T04:49:39.203Z,14.47
2022-11-17T04:52:07.272Z,10.87
2022-11-17T04:54:35.224Z,10.50
2022-11-17T04:57:03.309Z,10.33
2022-11-17T04:59:31.316Z,12.47
2022-11-17T05:02:05.309Z,10.47
2022-11-17T05:04:51.342Z,7.30
2022-11-17T05:07:20.871Z,10.17
2022-11-17T05:09:48.841Z,9.33
2022-11-17T05:12:34.358Z,11.60
2022-11-17T05:15:02.226Z,10.03
2022-11-17T05:17:29.234Z,8.00
2022-11-17T05:19:57.985Z,8.27
2022-11-17T05:22:43.773Z,10.50
2022-11-17T05:25:12.104Z,12.00
2022-11-17T05:27:40.129Z,9.30
2022-11-17T05:30:09.995Z,11.63
2022-11-17T05:32:37.920Z,13.93
2022-11-17T05:35:06.685Z,10.27
2022-11-17T05:37:36.197Z,11.50
2022-11-17T05:40:04.588Z,11.13
2022-11-17T05:42:32.644Z,8.43
2022-11-17T05:45:00.663Z,11.87
2022-11-17T05:47:28.684Z,10.00
2022-11-17T05:49:56.689Z,10.00
2022-11-17T05:52:24.706Z,7.33
2022-11-17T05:54:54.038Z,11.97
2022-11-17T05:57:27.289Z,12.30
2022-11-17T06:00:01.475Z,11.30
2022-11-17T06:02:35.615Z,9.20
2022-11-17T06:05:04.072Z,8.47
2022-11-17T06:07:32.255Z,10.57
2022-11-17T06:10:01.372Z,10.27
2022-11-17T06:12:29.172Z,9.23
2022-11-17T06:14:57.123Z,14.00
2022-11-17T06:17:32.161Z,9.40
2022-11-17T06:20:04.108Z,9.97
2022-11-17T06:22:32.686Z,11.43
2022-11-17T06:25:04.487Z,8.73
2022-11-17T06:27:34.090Z,9.50
2022-11-17T06:30:04.720Z,7.03
2022-11-17T06:32:36.035Z,12.20
2022-11-17T06:35:07.022Z,9.27
2022-11-17T06:37:35.034Z,8.60
2022-11-17T06:40:04.971Z,7.30
2022-11-17T06:42:50.535Z,9.87
2022-11-17T06:45:18.656Z,9.27
2022-11-17T06:47:46.668Z,7.60
2022-11-17T06:50:14.709Z,7.70
2022-11-17T06:52:42.766Z,7.07
2022-11-17T06:55:13.072Z,7.10
2022-11-17T06:57:41.081Z,12.00
2022-11-17T07:00:10.600Z,6.53
2022-11-17T07:02:38.940Z,7.00
2022-11-17T07:05:07.431Z,7.27
2022-11-17T07:07:35.444Z,8.57
2022-11-17T07:10:03.538Z,8.40
2022-11-17T07:12:34.000Z,7.77
2022-11-17T07:15:02.218Z,7.90
2022-11-17T07:17:30.352Z,7.20
2022-11-17T07:19:58.511Z,7.60
2022-11-17T07:22:26.499Z,8.40
2022-11-17T07:24:54.523Z,7.20
2022-11-17T07:27:22.557Z,6.73
2022-11-17T07:29:52.163Z,6.50
2022-11-17T07:32:20.196Z,7.47
2022-11-17T07:34:48.386Z,6.30
2022-11-17T07:37:16.726Z,6.87
2022-11-17T07:39:44.945Z,7.10
2022-11-17T07:42:12.967Z,9.07
2022-11-17T07:44:41.183Z,8.07
2022-11-17T07:47:10.603Z,6.50
2022-11-17T07:49:38.742Z,5.77
2022-11-17T07:52:06.894Z,6.83
2022-11-17T07:54:34.933Z,4.40
2022-11-17T07:57:03.001Z,6.73
2022-11-17T07:59:31.074Z,5.67
2022-11-17T08:01:59.176Z,10.20
2022-11-17T08:04:28.520Z,8.73
2022-11-17T08:06:56.619Z,7.37
2022-11-17T08:09:24.923Z,6.00
2022-11-17T08:11:53.100Z,5.97
2022-11-17T08:14:21.506Z,5.40
2022-11-17T08:16:49.469Z,6.50
2022-11-17T08:19:17.480Z,8.87
2022-11-17T08:21:46.892Z,8.77
2022-11-17T08:24:14.967Z,6.73
2022-11-17T08:26:43.037Z,8.87
2022-11-17T08:29:11.026Z,9.37
2022-11-17T08:31:39.123Z,10.60
2022-11-17T08:34:07.062Z,6.47
2022-11-17T08:36:35.297Z,9.00
2022-11-17T08:39:05.197Z,7.77
2022-11-17T08:41:33.392Z,9.53
2022-11-17T08:44:01.442Z,6.13
2022-11-17T08:46:29.419Z,7.70
2022-11-17T08:48:57.568Z,8.97
2022-11-17T08:51:27.191Z,5.03
2022-11-17T08:53:55.444Z,7.33
2022-11-17T08:56:24.874Z,8.60
2022-11-17T08:58:52.864Z,9.03
2022-11-17T09:01:20.941Z,8.57
2022-11-17T09:03:49.504Z,12.90
2022-11-17T09:06:20.111Z,10.07
2022-11-17T09:08:48.748Z,9.83
2022-11-17T09:11:17.413Z,13.43
2022-11-17T09:13:47.128Z,8.10
2022-11-17T09:16:16.001Z,10.17
2022-11-17T09:18:44.689Z,6.90
2022-11-17T09:21:15.130Z,6.20
2022-11-17T09:23:43.900Z,10.03
2022-11-17T09:26:14.230Z,8.37
2022-11-17T09:28:42.717Z,7.37
2022-11-17T09:31:14.229Z,10.17
2022-11-17T09:33:43.013Z,8.57
2022-11-17T09:36:14.904Z,16.53
2022-11-17T09:38:46.877Z,9.40
2022-11-17T09:41:34.778Z,7.70
2022-11-17T09:44:24.431Z,10.60
2022-11-17T09:51:47.797Z,9.80
2022-11-17T09:54:22.087Z,6.17
2022-11-17T09:57:08.580Z,8.20
2022-11-17T09:59:44.809Z,8.57
2022-11-17T10:02:14.350Z,7.40
2022-11-17T10:05:31.839Z,8.20
2022-11-17T10:08:03.674Z,11.40
2022-11-17T10:10:38.458Z,5.30
2022-11-17T10:13:12.974Z,16.33
2022-11-17T10:15:46.916Z,9.80
2022-11-17T10:18:18.181Z,11.50
2022-11-17T10:20:47.229Z,10.47
2022-11-17T10:23:18.319Z,11.73
2022-11-17T10:25:47.587Z,8.70
2022-11-17T10:28:28.224Z,8.33
2022-11-17T10:31:00.102Z,13.83
2022-11-17T10:33:38.359Z,12.23
2022-11-17T10:36:14.206Z,10.57
2022-11-17T10:38:46.593Z,8.07
2022-11-17T10:41:18.038Z,12.10
2022-11-17T10:44:01.252Z,9.60
2022-11-17T10:46:41.620Z,9.97
2022-11-17T10:49:26.133Z,12.77
2022-11-17T10:52:06.521Z,8.53
2022-11-17T10:54:34.719Z,13.83
2022-11-17T10:57:06.456Z,7.40
2022-11-17T10:59:42.431Z,13.40
2022-11-17T11:05:15.814Z,8.80
2022-11-17T11:07:44.495Z,12.00
2022-11-17T11:10:17.846Z,10.57
2022-11-17T11:12:51.017Z,11.97
2022-11-17T11:15:21.850Z,14.07
2022-11-17T11:17:50.374Z,13.07
2022-11-17T11:20:25.139Z,13.80
2022-11-17T11:22:59.153Z,10.10
2022-11-17T11:25:35.786Z,9.90
2022-11-17T11:28:13.109Z,13.30
2022-11-17T11:30:55.076Z,7.40
2022-11-17T11:33:34.397Z,12.77
2022-11-17T11:36:21.096Z,10.33
2022-11-17T11:38:58.742Z,11.00
2022-11-17T11:41:47.869Z,13.03
2022-11-17T11:44:27.545Z,11.67
2022-11-17T11:47:06.906Z,9.27
2022-11-17T11:49:41.418Z,10.07
2022-11-17T11:52:17.213Z,8.17
2022-11-17T11:54:51.173Z,10.07
2022-11-17T11:57:22.025Z,11.73
2022-11-17T12:00:02.468Z,13.27
2022-11-17T12:02:41.192Z,10.07
2022-11-17T12:05:20.344Z,10.17
2022-11-17T12:07:57.060Z,12.47
2022-11-17T12:10:32.798Z,8.90
2022-11-17T12:13:01.523Z,9.23
2022-11-17T12:15:34.794Z,15.23
2022-11-17T12:18:06.303Z,9.87
2022-11-17T12:20:55.804Z,11.17
2022-11-17T12:23:36.988Z,9.43
2022-11-17T12:26:05.220Z,13.80
2022-11-17T12:28:36.804Z,9.30
2022-11-17T12:31:10.041Z,10.00
2022-11-17T12:34:21.439Z,10.43
2022-11-17T12:37:08.421Z,7.70
2022-11-17T12:39:59.341Z,9.30
2022-11-17T12:42:27.947Z,11.03
2022-11-17T12:45:04.514Z,6.03
2022-11-17T12:47:34.534Z,10.13
2022-11-17T12:50:40.666Z,7.23
2022-11-17T12:53:37.417Z,7.43
2022-11-17T12:56:24.653Z,10.03
2022-11-17T12:59:05.234Z,7.97
2022-11-17T13:01:43.542Z,9.43
2022-11-17T13:04:15.733Z,9.83
2022-11-17T13:06:59.806Z,18.90
2022-11-17T13:09:29.864Z,7.30
2022-11-17T13:12:04.354Z,12.00
2022-11-17T13:14:33.127Z,7.73
2022-11-17T13:17:01.950Z,7.57
2022-11-17T13:19:38.057Z,6.27
2022-11-17T13:22:15.406Z,11.70
2022-11-17T13:24:46.138Z,7.17
2022-11-17T13:27:24.167Z,7.70
2022-11-17T13:29:52.418Z,12.63
2022-11-17T13:32:23.364Z,6.97
2022-11-17T13:34:53.989Z,6.80
2022-11-17T13:37:24.116Z,6.10
2022-11-17T13:39:57.050Z,6.63
2022-11-17T13:42:28.982Z,6.90
2022-11-17T13:45:00.033Z,8.67
2022-11-17T13:47:41.708Z,5.53
2022-11-17T13:50:24.601Z,8.60
2022-11-17T13:52:56.811Z,7.30
2022-11-17T13:55:26.215Z,6.87
2022-11-17T13:57:58.308Z,7.13
2022-11-17T14:00:26.624Z,7.83
2022-11-17T14:02:55.753Z,7.93
2022-11-17T14:05:26.519Z,8.97
2022-11-17T14:07:57.006Z,7.57
2022-11-17T14:10:31.536Z,6.77
2022-11-17T14:13:30.000Z,9.20
2022-11-17T14:16:00.856Z,5.77
2022-11-17T14:18:37.044Z,6.13
2022-11-17T14:21:07.390Z,5.00
2022-11-17T14:23:35.959Z,5.10
2022-11-17T14:26:04.214Z,4.83
2022-11-17T14:28:33.751Z,5.63
2022-11-17T14:31:02.095Z,5.90
2022-11-17T14:33:30.402Z,8.13
2022-11-17T14:36:00.677Z,9.77
2022-11-17T14:38:29.158Z,5.63
2022-11-17T14:40:57.219Z,4.67
2022-11-17T14:43:25.334Z,8.93
2022-11-17T14:45:54.846Z,11.00
2022-11-17T14:48:23.158Z,5.83
2022-11-17T14:50:57.410Z,5.73
2022-11-17T14:53:26.414Z,5.20
2022-11-17T14:55:54.750Z,7.40
2022-11-17T14:58:22.758Z,8.50
2022-11-17T15:00:50.978Z,9.07
2022-11-17T15:03:20.487Z,6.43
2022-11-17T15:05:48.541Z,8.43
2022-11-17T15:08:16.671Z,10.17
2022-11-17T15:10:45.699Z,7.93
2022-11-17T15:13:14.086Z,14.30
2022-11-17T15:15:42.053Z,7.33
2022-11-17T15:18:11.736Z,6.07
2022-11-17T15:20:41.328Z,9.60
2022-11-17T15:23:09.468Z,8.17
2022-11-17T15:25:39.483Z,7.27
2022-11-17T15:28:07.472Z,7.67
2022-11-17T15:30:35.495Z,5.47
2022-11-17T15:33:03.672Z,6.20
2022-11-17T15:35:31.769Z,7.23
2022-11-17T15:38:01.208Z,6.10
2022-11-17T15:40:29.292Z,6.73
2022-11-17T15:42:57.259Z,8.73
2022-11-17T15:45:25.466Z,6.60
2022-11-17T15:47:53.374Z,7.20
2022-11-17T15:50:21.358Z,8.87
2022-11-17T15:53:03.515Z,6.23
2022-11-17T15:55:35.122Z,11.70
2022-11-17T15:58:03.552Z,7.80
2022-11-17T16:00:33.880Z,8.73
2022-11-17T16:03:01.933Z,6.50
2022-11-17T16:05:30.229Z,5.50
2022-11-17T16:07:58.192Z,6.30
2022-11-17T16:10:27.413Z,5.63
2022-11-17T16:12:57.434Z,9.20
2022-11-17T16:15:25.402Z,7.07
2022-11-17T16:17:53.507Z,8.60
2022-11-17T16:20:21.678Z,9.50
2022-11-17T16:22:49.956Z,7.37
2022-11-17T16:25:17.951Z,6.67
2022-11-17T16:27:45.918Z,6.40
2022-11-17T16:30:16.178Z,7.43
2022-11-17T16:32:44.462Z,9.83
2022-11-17T16:35:12.647Z,9.67
2022-11-17T16:37:40.616Z,8.37
2022-11-17T16:40:09.527Z,9.67
2022-11-17T16:42:37.756Z,8.33
2022-11-17T16:45:06.483Z,8.23
2022-11-17T16:50:37.521Z,7.53
2022-11-17T16:53:05.707Z,8.93
2022-11-17T16:55:36.151Z,12.30
2022-11-17T16:58:04.589Z,7.97
2022-11-17T17:00:33.000Z,11.27
2022-11-17T17:03:02.476Z,8.23
2022-11-17T17:05:30.673Z,8.43
2022-11-17T17:07:58.779Z,13.07
2022-11-17T17:10:26.816Z,10.30
2022-11-17T17:12:54.731Z,10.53
2022-11-17T17:15:22.687Z,14.57
2022-11-17T17:17:50.968Z,12.63
2022-11-17T17:20:20.506Z,10.10
2022-11-17T17:22:48.559Z,8.63
2022-11-17T17:25:16.727Z,9.50
2022-11-17T17:27:44.742Z,10.27
2022-11-17T17:30:14.210Z,10.90
2022-11-17T17:32:42.175Z,7.87
2022-11-17T17:35:10.669Z,8.13
2022-11-17T17:37:40.497Z,11.37
2022-11-17T17:40:10.103Z,7.63
2022-11-17T17:42:38.238Z,11.20
2022-11-17T17:45:07.107Z,10.67
2022-11-17T17:47:36.439Z,9.27
2022-11-17T17:50:04.934Z,6.27
2022-11-17T17:52:32.966Z,9.93
2022-11-17T17:55:02.346Z,7.23
2022-11-17T17:57:33.931Z,11.80
2022-11-17T18:00:02.217Z,9.07
2022-11-17T18:02:30.439Z,8.20
2022-11-17T18:04:58.545Z,8.50
2022-11-17T18:07:26.659Z,8.37
2022-11-17T18:09:54.892Z,10.60
2022-11-17T18:12:24.337Z,7.00
2022-11-17T18:14:53.474Z,9.23
2022-11-17T18:17:21.507Z,10.20
2022-11-17T18:19:49.475Z,8.80
2022-11-17T18:22:17.513Z,6.03
2022-11-17T18:24:45.417Z,6.43
2022-11-17T18:27:13.439Z,7.47
2022-11-17T18:29:42.749Z,6.20
2022-11-17T18:32:10.730Z,7.23
2022-11-17T18:34:39.084Z,7.90
2022-11-17T18:37:07.656Z,8.13
2022-11-17T18:39:35.723Z,8.43
2022-11-17T18:42:03.721Z,9.60
2022-11-17T18:44:31.696Z,11.60
2022-11-17T18:47:03.088Z,13.30
2022-11-17T18:49:31.781Z,9.40
2022-11-17T18:51:59.794Z,8.77
2022-11-17T18:54:28.111Z,10.43
2022-11-17T18:56:56.344Z,10.83
2022-11-17T18:59:24.262Z,9.00
2022-11-17T19:01:52.443Z,9.37
2022-11-17T19:04:21.893Z,9.27
2022-11-17T19:06:50.238Z,13.53
2022-11-17T19:09:18.810Z,8.97
2022-11-17T19:11:47.156Z,6.47
2022-11-17T19:14:15.130Z,7.83
2022-11-17T19:16:45.086Z,8.73
2022-11-17T19:19:15.183Z,8.63
2022-11-17T19:21:45.260Z,6.73
2022-11-17T19:24:13.318Z,9.73
2022-11-17T19:26:42.799Z,9.30
2022-11-17T19:29:16.729Z,8.50
2022-11-17T19:31:46.011Z,9.13
2022-11-17T19:34:14.151Z,6.77
2022-11-17T19:36:42.363Z,10.23
2022-11-17T19:39:13.113Z,13.80
2022-11-17T19:41:41.437Z,11.83
2022-11-17T19:44:10.514Z,15.60
2022-11-17T19:46:39.139Z,9.70
2022-11-17T19:49:07.679Z,10.57
2022-11-17T19:51:37.505Z,10.00
2022-11-17T19:54:07.633Z,9.03
2022-11-17T19:56:38.393Z,10.43
2022-11-17T19:59:08.663Z,9.37
2022-11-17T20:01:40.967Z,7.23
2022-11-17T20:04:09.065Z,8.20
2022-11-17T20:06:39.753Z,10.83
2022-11-17T20:09:09.261Z,13.70
2022-11-17T20:11:39.159Z,17.50
2022-11-17T20:14:07.567Z,13.27
2022-11-17T20:16:38.341Z,13.43
2022-11-17T20:19:06.662Z,13.27
2022-11-17T20:21:34.831Z,17.37
2022-11-17T20:24:03.380Z,14.97
2022-11-17T20:26:33.501Z,11.83
2022-11-17T20:29:03.139Z,13.60
2022-11-17T20:31:33.310Z,13.90
2022-11-17T20:34:03.055Z,19.03
2022-11-17T20:36:32.883Z,15.87
2022-11-17T20:39:02.814Z,13.80
2022-11-17T20:41:31.246Z,14.43
2022-11-17T20:44:02.510Z,17.20
2022-11-17T20:46:30.592Z,16.33
2022-11-17T20:48:58.663Z,14.00
2022-11-17T20:51:27.052Z,22.20
2022-11-17T20:53:55.220Z,12.77
2022-11-17T20:56:23.344Z,12.63
2022-11-17T20:58:51.427Z,22.17
2022-11-17T21:01:23.121Z,17.87
2022-11-17T21:03:51.515Z,14.93
2022-11-17T21:06:23.054Z,16.37
2022-11-17T21:08:51.390Z,14.10
2022-11-17T21:11:34.983Z,12.23
2022-11-17T21:14:03.277Z,20.33
2022-11-17T21:16:32.958Z,14.00
2022-11-17T21:19:01.284Z,15.13
2022-11-17T21:21:29.519Z,15.77
2022-11-17T21:23:58.144Z,12.43
2022-11-17T21:26:27.940Z,9.00
2022-11-17T21:28:59.320Z,10.53
2022-11-17T21:31:32.838Z,10.57
2022-11-17T21:34:02.758Z,17.03
2022-11-17T21:36:32.162Z,18.23
2022-11-17T21:39:00.628Z,15.60
2022-11-17T21:41:30.258Z,13.70
2022-11-17T21:44:00.591Z,14.03
2022-11-17T21:46:30.437Z,17.03
2022-11-17T21:49:01.125Z,9.20
2022-11-17T21:51:33.286Z,10.67
2022-11-17T21:54:03.313Z,14.53
2022-11-17T21:56:32.352Z,10.80
2022-11-17T21:59:02.336Z,17.33
2022-11-17T22:01:31.334Z,13.37
2022-11-17T22:04:01.046Z,11.87
2022-11-17T22:06:30.327Z,17.67
2022-11-17T22:09:00.016Z,18.90
2022-11-17T22:11:39.204Z,13.03
2022-11-17T22:14:09.839Z,16.53
2022-11-17T22:16:39.487Z,15.63
2022-11-17T22:19:09.767Z,18.57
2022-11-17T22:21:39.273Z,19.90
2022-11-17T22:24:12.069Z,16.03
2022-11-17T22:26:41.543Z,17.00
2022-11-17T22:29:12.651Z,13.73
2022-11-17T22:31:40.759Z,15.83
2022-11-17T22:34:10.469Z,22.50
2022-11-17T22:36:38.497Z,18.73
2022-11-17T22:39:06.665Z,20.10
2022-11-17T22:41:35.014Z,15.43
2022-11-17T22:44:03.044Z,19.13
2022-11-17T22:46:31.093Z,17.23
2022-11-17T22:48:59.029Z,17.37
2022-11-17T22:51:46.011Z,14.97
2022-11-17T22:54:14.144Z,18.67
2022-11-17T22:56:42.429Z,11.13
2022-11-17T22:59:10.833Z,19.10
2022-11-17T23:01:39.076Z,18.33
2022-11-17T23:04:07.750Z,21.67
2022-11-17T23:06:37.162Z,19.30
2022-11-17T23:09:05.380Z,17.57
2022-11-17T23:11:38.164Z,11.83
2022-11-17T23:14:07.874Z,19.33
2022-11-17T23:16:36.095Z,15.47
2022-11-17T23:19:04.578Z,16.67
2022-11-17T23:21:32.917Z,18.53
2022-11-17T23:24:02.398Z,22.33
2022-11-17T23:26:30.489Z,17.10
2022-11-17T23:28:59.176Z,16.47
2022-11-17T23:31:28.232Z,21.80
2022-11-17T23:33:56.384Z,13.63
2022-11-17T23:36:24.922Z,19.50
2022-11-17T23:38:55.318Z,18.13
2022-11-17T23:41:25.177Z,17.73
2022-11-17T23:43:54.607Z,17.83
2022-11-17T23:46:25.025Z,17.13
2022-11-17T23:48:53.614Z,20.03
2022-11-17T23:51:23.587Z,20.93
2022-11-17T23:53:52.080Z,24.80
2022-11-17T23:56:21.012Z,17.10
2022-11-17T23:58:51.119Z,19.83
